sensor_id;sensor_type;location;lat;lon;timestamp;P1;durP1;ratioP1;P2;durP2;ratioP2
69998;SDS011;57339;52.156;5.372;2024-02-21T00:01:40;17.23;;;3.75;;
69998;SDS011;57339;52.156;5.372;2024-02-21T00:04:10;15.70;;;3.92;;
69998;SDS011;57339;52.156;5.372;2024-02-21T00:06:37;13.00;;;3.75;;
69998;SDS011;57339;52.156;5.372;2024-02-21T00:09:04;9.70;;;2.47;;
69998;SDS011;57339;52.156;5.372;2024-02-21T00:11:31;13.52;;;4.20;;
69998;SDS011;57339;52.156;5.372;2024-02-21T00:13:58;15.23;;;4.18;;
69998;SDS011;57339;52.156;5.372;2024-02-21T00:16:26;14.32;;;4.18;;
69998;SDS011;57339;52.156;5.372;2024-02-21T00:18:53;10.43;;;3.30;;
69998;SDS011;57339;52.156;5.372;2024-02-21T00:21:20;12.53;;;3.57;;
69998;SDS011;57339;52.156;5.372;2024-02-21T00:23:47;16.27;;;3.70;;
69998;SDS011;57339;52.156;5.372;2024-02-21T00:26:14;17.73;;;3.60;;
69998;SDS011;57339;52.156;5.372;2024-02-21T00:28:41;21.75;;;3.92;;
69998;SDS011;57339;52.156;5.372;2024-02-21T00:31:08;11.23;;;3.22;;
69998;SDS011;57339;52.156;5.372;2024-02-21T00:33:35;18.10;;;4.50;;
69998;SDS011;57339;52.156;5.372;2024-02-21T00:36:03;17.85;;;5.10;;
69998;SDS011;57339;52.156;5.372;2024-02-21T00:38:30;17.67;;;4.43;;
69998;SDS011;57339;52.156;5.372;2024-02-21T00:40:57;13.80;;;3.38;;
69998;SDS011;57339;52.156;5.372;2024-02-21T00:43:24;18.95;;;3.95;;
69998;SDS011;57339;52.156;5.372;2024-02-21T00:45:52;11.80;;;3.30;;
69998;SDS011;57339;52.156;5.372;2024-02-21T00:48:18;19.95;;;4.55;;
69998;SDS011;57339;52.156;5.372;2024-02-21T00:50:45;11.70;;;3.28;;
69998;SDS011;57339;52.156;5.372;2024-02-21T00:53:13;14.43;;;4.22;;
69998;SDS011;57339;52.156;5.372;2024-02-21T00:55:39;15.32;;;3.80;;
69998;SDS011;57339;52.156;5.372;2024-02-21T00:58:06;15.27;;;4.00;;
69998;SDS011;57339;52.156;5.372;2024-02-21T01:00:34;15.63;;;3.65;;
69998;SDS011;57339;52.156;5.372;2024-02-21T01:03:01;12.65;;;3.30;;
69998;SDS011;57339;52.156;5.372;2024-02-21T01:05:28;8.65;;;2.80;;
69998;SDS011;57339;52.156;5.372;2024-02-21T01:07:55;14.95;;;3.78;;
69998;SDS011;57339;52.156;5.372;2024-02-21T01:10:22;15.40;;;3.90;;
69998;SDS011;57339;52.156;5.372;2024-02-21T01:12:49;18.38;;;4.22;;
69998;SDS011;57339;52.156;5.372;2024-02-21T01:15:16;14.50;;;4.10;;
69998;SDS011;57339;52.156;5.372;2024-02-21T01:17:43;9.70;;;3.05;;
69998;SDS011;57339;52.156;5.372;2024-02-21T01:20:10;18.85;;;4.85;;
69998;SDS011;57339;52.156;5.372;2024-02-21T01:22:40;12.77;;;4.03;;
69998;SDS011;57339;52.156;5.372;2024-02-21T01:25:07;13.88;;;4.60;;
69998;SDS011;57339;52.156;5.372;2024-02-21T01:27:35;17.10;;;5.28;;
69998;SDS011;57339;52.156;5.372;2024-02-21T01:30:02;15.00;;;3.97;;
69998;SDS011;57339;52.156;5.372;2024-02-21T01:32:30;14.95;;;4.72;;
69998;SDS011;57339;52.156;5.372;2024-02-21T01:34:57;19.43;;;5.60;;
69998;SDS011;57339;52.156;5.372;2024-02-21T01:37:24;22.45;;;5.47;;
69998;SDS011;57339;52.156;5.372;2024-02-21T01:39:51;19.30;;;4.90;;
69998;SDS011;57339;52.156;5.372;2024-02-21T01:42:18;18.40;;;4.57;;
69998;SDS011;57339;52.156;5.372;2024-02-21T01:44:45;15.90;;;4.63;;
69998;SDS011;57339;52.156;5.372;2024-02-21T01:47:12;16.30;;;5.13;;
69998;SDS011;57339;52.156;5.372;2024-02-21T01:49:41;20.67;;;5.20;;
69998;SDS011;57339;52.156;5.372;2024-02-21T01:52:11;19.48;;;5.75;;
69998;SDS011;57339;52.156;5.372;2024-02-21T01:54:39;16.60;;;4.80;;
69998;SDS011;57339;52.156;5.372;2024-02-21T01:57:06;17.52;;;6.00;;
69998;SDS011;57339;52.156;5.372;2024-02-21T01:59:35;20.10;;;5.27;;
69998;SDS011;57339;52.156;5.372;2024-02-21T02:02:02;20.88;;;5.90;;
69998;SDS011;57339;52.156;5.372;2024-02-21T02:04:29;13.80;;;4.90;;
69998;SDS011;57339;52.156;5.372;2024-02-21T02:06:57;17.65;;;4.28;;
69998;SDS011;57339;52.156;5.372;2024-02-21T02:09:28;19.42;;;5.78;;
69998;SDS011;57339;52.156;5.372;2024-02-21T02:11:55;17.67;;;4.93;;
69998;SDS011;57339;52.156;5.372;2024-02-21T02:14:22;15.75;;;4.93;;
69998;SDS011;57339;52.156;5.372;2024-02-21T02:16:49;17.40;;;5.35;;
69998;SDS011;57339;52.156;5.372;2024-02-21T02:19:16;15.70;;;5.35;;
69998;SDS011;57339;52.156;5.372;2024-02-21T02:21:49;14.32;;;4.82;;
69998;SDS011;57339;52.156;5.372;2024-02-21T02:24:17;17.03;;;5.50;;
69998;SDS011;57339;52.156;5.372;2024-02-21T02:26:44;14.27;;;4.93;;
69998;SDS011;57339;52.156;5.372;2024-02-21T02:29:11;9.63;;;3.47;;
69998;SDS011;57339;52.156;5.372;2024-02-21T02:31:38;16.05;;;5.07;;
69998;SDS011;57339;52.156;5.372;2024-02-21T02:34:06;16.00;;;5.47;;
69998;SDS011;57339;52.156;5.372;2024-02-21T02:36:33;16.57;;;5.73;;
69998;SDS011;57339;52.156;5.372;2024-02-21T02:39:00;21.65;;;6.40;;
69998;SDS011;57339;52.156;5.372;2024-02-21T02:41:27;17.58;;;6.05;;
69998;SDS011;57339;52.156;5.372;2024-02-21T02:43:54;17.58;;;5.63;;
69998;SDS011;57339;52.156;5.372;2024-02-21T02:46:21;19.20;;;5.97;;
69998;SDS011;57339;52.156;5.372;2024-02-21T02:48:49;20.13;;;5.90;;
69998;SDS011;57339;52.156;5.372;2024-02-21T02:51:16;17.20;;;6.85;;
69998;SDS011;57339;52.156;5.372;2024-02-21T02:53:42;19.77;;;6.40;;
69998;SDS011;57339;52.156;5.372;2024-02-21T02:56:15;16.55;;;5.70;;
69998;SDS011;57339;52.156;5.372;2024-02-21T02:58:43;19.73;;;6.10;;
69998;SDS011;57339;52.156;5.372;2024-02-21T03:01:10;21.17;;;6.80;;
69998;SDS011;57339;52.156;5.372;2024-02-21T03:03:37;17.63;;;6.40;;
69998;SDS011;57339;52.156;5.372;2024-02-21T03:06:05;17.88;;;6.43;;
69998;SDS011;57339;52.156;5.372;2024-02-21T03:08:32;16.00;;;5.00;;
69998;SDS011;57339;52.156;5.372;2024-02-21T03:10:59;19.52;;;6.47;;
69998;SDS011;57339;52.156;5.372;2024-02-21T03:13:26;18.90;;;5.70;;
69998;SDS011;57339;52.156;5.372;2024-02-21T03:15:54;22.15;;;7.13;;
69998;SDS011;57339;52.156;5.372;2024-02-21T03:18:20;19.35;;;6.10;;
69998;SDS011;57339;52.156;5.372;2024-02-21T03:20:47;20.25;;;6.05;;
69998;SDS011;57339;52.156;5.372;2024-02-21T03:23:14;18.25;;;6.32;;
69998;SDS011;57339;52.156;5.372;2024-02-21T03:25:41;26.10;;;6.90;;
69998;SDS011;57339;52.156;5.372;2024-02-21T03:28:08;17.52;;;6.35;;
69998;SDS011;57339;52.156;5.372;2024-02-21T03:30:36;20.70;;;6.50;;
69998;SDS011;57339;52.156;5.372;2024-02-21T03:33:03;17.58;;;6.10;;
69998;SDS011;57339;52.156;5.372;2024-02-21T03:35:30;18.60;;;6.68;;
69998;SDS011;57339;52.156;5.372;2024-02-21T03:37:57;15.93;;;6.37;;
69998;SDS011;57339;52.156;5.372;2024-02-21T03:40:24;20.33;;;7.18;;
69998;SDS011;57339;52.156;5.372;2024-02-21T03:42:51;21.70;;;6.97;;
69998;SDS011;57339;52.156;5.372;2024-02-21T03:45:18;17.50;;;6.72;;
69998;SDS011;57339;52.156;5.372;2024-02-21T03:47:45;22.58;;;6.90;;
69998;SDS011;57339;52.156;5.372;2024-02-21T03:50:12;31.90;;;8.10;;
69998;SDS011;57339;52.156;5.372;2024-02-21T03:52:39;19.80;;;6.18;;
69998;SDS011;57339;52.156;5.372;2024-02-21T03:55:07;19.17;;;6.85;;
69998;SDS011;57339;52.156;5.372;2024-02-21T03:57:34;21.77;;;6.53;;
69998;SDS011;57339;52.156;5.372;2024-02-21T04:00:01;19.83;;;6.57;;
69998;SDS011;57339;52.156;5.372;2024-02-21T04:02:28;18.07;;;6.50;;
69998;SDS011;57339;52.156;5.372;2024-02-21T04:04:55;21.80;;;7.05;;
69998;SDS011;57339;52.156;5.372;2024-02-21T04:07:22;20.38;;;6.60;;
69998;SDS011;57339;52.156;5.372;2024-02-21T04:09:49;21.52;;;6.60;;
69998;SDS011;57339;52.156;5.372;2024-02-21T04:12:16;21.27;;;6.80;;
69998;SDS011;57339;52.156;5.372;2024-02-21T04:14:43;22.13;;;6.47;;
69998;SDS011;57339;52.156;5.372;2024-02-21T04:17:13;13.35;;;4.45;;
69998;SDS011;57339;52.156;5.372;2024-02-21T04:19:39;22.00;;;6.97;;
69998;SDS011;57339;52.156;5.372;2024-02-21T04:22:07;17.85;;;6.68;;
69998;SDS011;57339;52.156;5.372;2024-02-21T04:24:34;20.13;;;6.30;;
69998;SDS011;57339;52.156;5.372;2024-02-21T04:27:01;17.83;;;5.93;;
69998;SDS011;57339;52.156;5.372;2024-02-21T04:29:28;16.10;;;6.43;;
69998;SDS011;57339;52.156;5.372;2024-02-21T04:31:55;21.60;;;5.93;;
69998;SDS011;57339;52.156;5.372;2024-02-21T04:34:22;15.75;;;5.38;;
69998;SDS011;57339;52.156;5.372;2024-02-21T04:36:49;20.13;;;6.63;;
69998;SDS011;57339;52.156;5.372;2024-02-21T04:39:16;24.43;;;6.60;;
69998;SDS011;57339;52.156;5.372;2024-02-21T04:41:43;19.08;;;5.72;;
69998;SDS011;57339;52.156;5.372;2024-02-21T04:44:13;18.83;;;6.40;;
69998;SDS011;57339;52.156;5.372;2024-02-21T04:46:42;17.75;;;6.00;;
69998;SDS011;57339;52.156;5.372;2024-02-21T04:49:10;13.82;;;4.07;;
69998;SDS011;57339;52.156;5.372;2024-02-21T04:51:40;17.90;;;6.00;;
69998;SDS011;57339;52.156;5.372;2024-02-21T04:54:07;18.45;;;6.13;;
69998;SDS011;57339;52.156;5.372;2024-02-21T04:56:34;15.80;;;5.38;;
69998;SDS011;57339;52.156;5.372;2024-02-21T04:59:01;18.75;;;6.80;;
69998;SDS011;57339;52.156;5.372;2024-02-21T05:01:28;18.65;;;6.55;;
69998;SDS011;57339;52.156;5.372;2024-02-21T05:03:56;17.07;;;6.17;;
69998;SDS011;57339;52.156;5.372;2024-02-21T05:06:23;22.25;;;6.80;;
69998;SDS011;57339;52.156;5.372;2024-02-21T05:08:50;15.57;;;6.00;;
69998;SDS011;57339;52.156;5.372;2024-02-21T05:11:17;15.15;;;6.43;;
69998;SDS011;57339;52.156;5.372;2024-02-21T05:13:44;20.10;;;6.60;;
69998;SDS011;57339;52.156;5.372;2024-02-21T05:16:11;14.83;;;6.77;;
69998;SDS011;57339;52.156;5.372;2024-02-21T05:18:39;17.10;;;7.68;;
69998;SDS011;57339;52.156;5.372;2024-02-21T05:21:07;16.25;;;6.43;;
69998;SDS011;57339;52.156;5.372;2024-02-21T05:23:34;17.20;;;6.57;;
69998;SDS011;57339;52.156;5.372;2024-02-21T05:26:01;17.30;;;6.85;;
69998;SDS011;57339;52.156;5.372;2024-02-21T05:28:28;19.60;;;7.13;;
69998;SDS011;57339;52.156;5.372;2024-02-21T05:30:55;18.27;;;7.70;;
69998;SDS011;57339;52.156;5.372;2024-02-21T05:33:22;17.40;;;7.32;;
69998;SDS011;57339;52.156;5.372;2024-02-21T05:35:50;17.92;;;7.40;;
69998;SDS011;57339;52.156;5.372;2024-02-21T05:38:17;20.33;;;7.10;;
69998;SDS011;57339;52.156;5.372;2024-02-21T05:40:44;18.27;;;8.00;;
69998;SDS011;57339;52.156;5.372;2024-02-21T05:43:11;18.73;;;8.27;;
69998;SDS011;57339;52.156;5.372;2024-02-21T05:45:38;18.15;;;6.93;;
69998;SDS011;57339;52.156;5.372;2024-02-21T05:48:05;22.63;;;8.38;;
69998;SDS011;57339;52.156;5.372;2024-02-21T05:50:33;18.35;;;7.40;;
69998;SDS011;57339;52.156;5.372;2024-02-21T05:53:00;20.20;;;8.10;;
69998;SDS011;57339;52.156;5.372;2024-02-21T05:55:27;17.05;;;7.97;;
69998;SDS011;57339;52.156;5.372;2024-02-21T05:57:54;18.73;;;7.45;;
69998;SDS011;57339;52.156;5.372;2024-02-21T06:00:21;18.60;;;7.32;;
69998;SDS011;57339;52.156;5.372;2024-02-21T06:02:48;17.75;;;7.97;;
69998;SDS011;57339;52.156;5.372;2024-02-21T06:05:15;18.90;;;7.53;;
69998;SDS011;57339;52.156;5.372;2024-02-21T06:07:42;14.25;;;6.35;;
69998;SDS011;57339;52.156;5.372;2024-02-21T06:10:09;19.13;;;8.40;;
69998;SDS011;57339;52.156;5.372;2024-02-21T06:12:37;18.77;;;7.85;;
69998;SDS011;57339;52.156;5.372;2024-02-21T06:15:04;20.52;;;8.13;;
69998;SDS011;57339;52.156;5.372;2024-02-21T06:17:32;20.33;;;7.73;;
69998;SDS011;57339;52.156;5.372;2024-02-21T06:19:59;17.05;;;6.90;;
69998;SDS011;57339;52.156;5.372;2024-02-21T06:22:26;23.08;;;8.73;;
69998;SDS011;57339;52.156;5.372;2024-02-21T06:24:53;20.52;;;8.65;;
69998;SDS011;57339;52.156;5.372;2024-02-21T06:27:20;19.10;;;7.88;;
69998;SDS011;57339;52.156;5.372;2024-02-21T06:29:47;21.10;;;9.60;;
69998;SDS011;57339;52.156;5.372;2024-02-21T06:32:14;23.40;;;9.35;;
69998;SDS011;57339;52.156;5.372;2024-02-21T06:34:40;21.30;;;9.57;;
69998;SDS011;57339;52.156;5.372;2024-02-21T06:37:09;20.55;;;8.35;;
69998;SDS011;57339;52.156;5.372;2024-02-21T06:39:37;27.40;;;9.82;;
69998;SDS011;57339;52.156;5.372;2024-02-21T06:42:04;20.43;;;8.50;;
69998;SDS011;57339;52.156;5.372;2024-02-21T06:44:30;20.60;;;9.93;;
69998;SDS011;57339;52.156;5.372;2024-02-21T06:46:57;22.58;;;10.07;;
69998;SDS011;57339;52.156;5.372;2024-02-21T06:49:24;23.70;;;9.95;;
69998;SDS011;57339;52.156;5.372;2024-02-21T06:51:51;25.42;;;11.85;;
69998;SDS011;57339;52.156;5.372;2024-02-21T06:54:18;25.30;;;11.87;;
69998;SDS011;57339;52.156;5.372;2024-02-21T06:56:45;30.33;;;11.35;;
69998;SDS011;57339;52.156;5.372;2024-02-21T06:59:12;31.55;;;12.35;;
69998;SDS011;57339;52.156;5.372;2024-02-21T07:01:39;25.92;;;9.45;;
69998;SDS011;57339;52.156;5.372;2024-02-21T07:04:06;28.02;;;12.70;;
69998;SDS011;57339;52.156;5.372;2024-02-21T07:06:33;30.53;;;12.00;;
69998;SDS011;57339;52.156;5.372;2024-02-21T07:09:02;20.63;;;7.70;;
69998;SDS011;57339;52.156;5.372;2024-02-21T07:11:29;26.98;;;10.98;;
69998;SDS011;57339;52.156;5.372;2024-02-21T07:13:56;26.55;;;10.98;;
69998;SDS011;57339;52.156;5.372;2024-02-21T07:16:23;31.67;;;13.10;;
69998;SDS011;57339;52.156;5.372;2024-02-21T07:18:49;29.40;;;12.37;;
69998;SDS011;57339;52.156;5.372;2024-02-21T07:21:17;31.10;;;12.15;;
69998;SDS011;57339;52.156;5.372;2024-02-21T07:23:44;29.65;;;12.45;;
69998;SDS011;57339;52.156;5.372;2024-02-21T07:26:10;30.40;;;12.18;;
69998;SDS011;57339;52.156;5.372;2024-02-21T07:28:38;29.85;;;13.63;;
69998;SDS011;57339;52.156;5.372;2024-02-21T07:31:05;29.53;;;12.40;;
69998;SDS011;57339;52.156;5.372;2024-02-21T07:33:32;26.63;;;11.85;;
69998;SDS011;57339;52.156;5.372;2024-02-21T07:35:59;25.85;;;12.18;;
69998;SDS011;57339;52.156;5.372;2024-02-21T07:38:26;26.52;;;9.68;;
69998;SDS011;57339;52.156;5.372;2024-02-21T07:40:53;28.58;;;12.35;;
69998;SDS011;57339;52.156;5.372;2024-02-21T07:43:20;34.23;;;12.80;;
69998;SDS011;57339;52.156;5.372;2024-02-21T07:45:47;28.52;;;12.63;;
69998;SDS011;57339;52.156;5.372;2024-02-21T07:48:14;29.83;;;11.93;;
69998;SDS011;57339;52.156;5.372;2024-02-21T07:50:41;27.50;;;11.40;;
69998;SDS011;57339;52.156;5.372;2024-02-21T07:53:09;22.35;;;9.20;;
69998;SDS011;57339;52.156;5.372;2024-02-21T07:55:36;23.53;;;10.33;;
69998;SDS011;57339;52.156;5.372;2024-02-21T07:58:03;25.85;;;9.38;;
69998;SDS011;57339;52.156;5.372;2024-02-21T08:00:30;26.77;;;11.02;;
69998;SDS011;57339;52.156;5.372;2024-02-21T08:02:57;23.30;;;10.40;;
69998;SDS011;57339;52.156;5.372;2024-02-21T08:05:24;22.52;;;8.82;;
69998;SDS011;57339;52.156;5.372;2024-02-21T08:07:51;25.03;;;9.13;;
69998;SDS011;57339;52.156;5.372;2024-02-21T08:10:20;26.40;;;9.52;;
69998;SDS011;57339;52.156;5.372;2024-02-21T08:12:47;25.95;;;9.45;;
69998;SDS011;57339;52.156;5.372;2024-02-21T08:15:14;24.23;;;10.73;;
69998;SDS011;57339;52.156;5.372;2024-02-21T08:17:41;24.92;;;11.07;;
69998;SDS011;57339;52.156;5.372;2024-02-21T08:20:09;24.43;;;9.43;;
69998;SDS011;57339;52.156;5.372;2024-02-21T08:22:37;24.92;;;9.65;;
69998;SDS011;57339;52.156;5.372;2024-02-21T08:25:04;23.38;;;10.05;;
69998;SDS011;57339;52.156;5.372;2024-02-21T08:27:31;24.30;;;9.70;;
69998;SDS011;57339;52.156;5.372;2024-02-21T08:29:58;22.27;;;9.50;;
69998;SDS011;57339;52.156;5.372;2024-02-21T08:32:25;21.43;;;8.57;;
69998;SDS011;57339;52.156;5.372;2024-02-21T08:34:52;20.10;;;7.82;;
69998;SDS011;57339;52.156;5.372;2024-02-21T08:37:19;25.10;;;10.27;;
69998;SDS011;57339;52.156;5.372;2024-02-21T08:39:47;22.48;;;8.82;;
69998;SDS011;57339;52.156;5.372;2024-02-21T08:42:14;22.77;;;9.05;;
69998;SDS011;57339;52.156;5.372;2024-02-21T08:44:41;20.47;;;8.93;;
69998;SDS011;57339;52.156;5.372;2024-02-21T08:47:09;23.67;;;9.35;;
69998;SDS011;57339;52.156;5.372;2024-02-21T08:49:36;24.90;;;11.55;;
69998;SDS011;57339;52.156;5.372;2024-02-21T08:52:03;25.70;;;10.27;;
69998;SDS011;57339;52.156;5.372;2024-02-21T08:54:31;26.13;;;11.13;;
69998;SDS011;57339;52.156;5.372;2024-02-21T08:56:58;24.17;;;11.23;;
69998;SDS011;57339;52.156;5.372;2024-02-21T08:59:25;27.40;;;9.38;;
69998;SDS011;57339;52.156;5.372;2024-02-21T09:01:52;23.42;;;9.25;;
69998;SDS011;57339;52.156;5.372;2024-02-21T09:04:19;23.55;;;9.82;;
69998;SDS011;57339;52.156;5.372;2024-02-21T09:06:46;25.75;;;10.65;;
69998;SDS011;57339;52.156;5.372;2024-02-21T09:09:14;23.40;;;9.97;;
69998;SDS011;57339;52.156;5.372;2024-02-21T09:11:40;23.02;;;9.93;;
69998;SDS011;57339;52.156;5.372;2024-02-21T09:14:08;24.73;;;9.50;;
69998;SDS011;57339;52.156;5.372;2024-02-21T09:16:35;22.02;;;9.57;;
69998;SDS011;57339;52.156;5.372;2024-02-21T09:19:03;19.95;;;9.13;;
69998;SDS011;57339;52.156;5.372;2024-02-21T09:21:30;17.23;;;7.27;;
69998;SDS011;57339;52.156;5.372;2024-02-21T09:23:57;18.42;;;7.60;;
69998;SDS011;57339;52.156;5.372;2024-02-21T09:26:26;20.63;;;9.10;;
69998;SDS011;57339;52.156;5.372;2024-02-21T09:28:54;19.55;;;8.18;;
69998;SDS011;57339;52.156;5.372;2024-02-21T09:31:21;20.40;;;8.23;;
69998;SDS011;57339;52.156;5.372;2024-02-21T09:33:48;15.77;;;6.37;;
69998;SDS011;57339;52.156;5.372;2024-02-21T09:36:16;22.13;;;8.63;;
69998;SDS011;57339;52.156;5.372;2024-02-21T09:38:43;18.83;;;7.47;;
69998;SDS011;57339;52.156;5.372;2024-02-21T09:41:20;21.20;;;7.95;;
69998;SDS011;57339;52.156;5.372;2024-02-21T09:43:52;19.65;;;7.90;;
69998;SDS011;57339;52.156;5.372;2024-02-21T09:46:24;19.50;;;7.73;;
69998;SDS011;57339;52.156;5.372;2024-02-21T09:52:02;19.85;;;7.88;;
69998;SDS011;57339;52.156;5.372;2024-02-21T09:54:34;15.93;;;7.00;;
69998;SDS011;57339;52.156;5.372;2024-02-21T09:57:02;15.75;;;7.05;;
69998;SDS011;57339;52.156;5.372;2024-02-21T09:59:30;18.00;;;7.37;;
69998;SDS011;57339;52.156;5.372;2024-02-21T10:01:58;19.40;;;6.80;;
69998;SDS011;57339;52.156;5.372;2024-02-21T10:04:26;17.58;;;6.95;;
69998;SDS011;57339;52.156;5.372;2024-02-21T10:06:53;16.02;;;7.18;;
69998;SDS011;57339;52.156;5.372;2024-02-21T10:09:24;17.45;;;6.32;;
69998;SDS011;57339;52.156;5.372;2024-02-21T10:11:52;17.47;;;6.27;;
69998;SDS011;57339;52.156;5.372;2024-02-21T10:14:20;15.50;;;6.20;;
69998;SDS011;57339;52.156;5.372;2024-02-21T10:16:47;14.23;;;5.15;;
69998;SDS011;57339;52.156;5.372;2024-02-21T10:19:16;14.60;;;5.80;;
69998;SDS011;57339;52.156;5.372;2024-02-21T10:21:44;16.52;;;6.40;;
69998;SDS011;57339;52.156;5.372;2024-02-21T10:24:11;14.00;;;5.57;;
69998;SDS011;57339;52.156;5.372;2024-02-21T10:26:39;15.38;;;5.22;;
69998;SDS011;57339;52.156;5.372;2024-02-21T10:29:06;15.40;;;5.90;;
69998;SDS011;57339;52.156;5.372;2024-02-21T10:31:33;14.80;;;5.45;;
69998;SDS011;57339;52.156;5.372;2024-02-21T10:34:00;14.45;;;5.25;;
69998;SDS011;57339;52.156;5.372;2024-02-21T10:36:28;18.10;;;6.07;;
69998;SDS011;57339;52.156;5.372;2024-02-21T10:38:56;15.95;;;6.07;;
69998;SDS011;57339;52.156;5.372;2024-02-21T10:41:23;14.32;;;5.43;;
69998;SDS011;57339;52.156;5.372;2024-02-21T10:43:54;13.07;;;5.22;;
69998;SDS011;57339;52.156;5.372;2024-02-21T10:46:23;13.70;;;5.88;;
69998;SDS011;57339;52.156;5.372;2024-02-21T10:49:10;12.90;;;5.63;;
69998;SDS011;57339;52.156;5.372;2024-02-21T10:51:43;13.95;;;5.18;;
69998;SDS011;57339;52.156;5.372;2024-02-21T10:57:04;12.60;;;5.13;;
69998;SDS011;57339;52.156;5.372;2024-02-21T10:59:33;12.52;;;5.53;;
69998;SDS011;57339;52.156;5.372;2024-02-21T11:02:01;14.03;;;4.93;;
69998;SDS011;57339;52.156;5.372;2024-02-21T11:04:29;10.98;;;4.60;;
69998;SDS011;57339;52.156;5.372;2024-02-21T11:06:58;13.02;;;5.45;;
69998;SDS011;57339;52.156;5.372;2024-02-21T11:09:31;12.65;;;5.28;;
69998;SDS011;57339;52.156;5.372;2024-02-21T11:12:03;11.77;;;4.57;;
69998;SDS011;57339;52.156;5.372;2024-02-21T11:14:32;10.10;;;3.97;;
69998;SDS011;57339;52.156;5.372;2024-02-21T11:17:01;12.48;;;5.28;;
69998;SDS011;57339;52.156;5.372;2024-02-21T11:19:29;12.27;;;4.72;;
69998;SDS011;57339;52.156;5.372;2024-02-21T11:21:57;13.55;;;4.97;;
69998;SDS011;57339;52.156;5.372;2024-02-21T11:24:29;13.05;;;6.22;;
69998;SDS011;57339;52.156;5.372;2024-02-21T11:27:16;14.10;;;6.13;;
69998;SDS011;57339;52.156;5.372;2024-02-21T11:29:46;12.40;;;5.55;;
69998;SDS011;57339;52.156;5.372;2024-02-21T11:32:15;15.35;;;6.13;;
69998;SDS011;57339;52.156;5.372;2024-02-21T11:34:58;14.38;;;6.38;;
69998;SDS011;57339;52.156;5.372;2024-02-21T11:37:30;14.68;;;6.65;;
69998;SDS011;57339;52.156;5.372;2024-02-21T11:39:58;11.83;;;4.67;;
69998;SDS011;57339;52.156;5.372;2024-02-21T11:42:27;14.95;;;6.15;;
69998;SDS011;57339;52.156;5.372;2024-02-21T11:44:54;15.90;;;6.88;;
69998;SDS011;57339;52.156;5.372;2024-02-21T11:47:22;19.75;;;7.85;;
69998;SDS011;57339;52.156;5.372;2024-02-21T11:49:50;12.60;;;5.63;;
69998;SDS011;57339;52.156;5.372;2024-02-21T11:52:17;15.70;;;6.80;;
69998;SDS011;57339;52.156;5.372;2024-02-21T11:54:44;14.23;;;6.35;;
69998;SDS011;57339;52.156;5.372;2024-02-21T11:57:11;15.50;;;7.10;;
69998;SDS011;57339;52.156;5.372;2024-02-21T11:59:39;15.55;;;6.63;;
69998;SDS011;57339;52.156;5.372;2024-02-21T12:02:07;18.15;;;6.60;;
69998;SDS011;57339;52.156;5.372;2024-02-21T12:04:35;14.90;;;6.93;;
69998;SDS011;57339;52.156;5.372;2024-02-21T12:07:03;14.82;;;6.85;;
69998;SDS011;57339;52.156;5.372;2024-02-21T12:09:31;14.27;;;6.85;;
69998;SDS011;57339;52.156;5.372;2024-02-21T12:12:01;17.13;;;6.13;;
69998;SDS011;57339;52.156;5.372;2024-02-21T12:14:30;16.65;;;7.30;;
69998;SDS011;57339;52.156;5.372;2024-02-21T12:16:58;12.77;;;6.03;;
69998;SDS011;57339;52.156;5.372;2024-02-21T12:19:28;15.02;;;6.32;;
69998;SDS011;57339;52.156;5.372;2024-02-21T12:21:56;14.02;;;6.72;;
69998;SDS011;57339;52.156;5.372;2024-02-21T12:24:24;11.63;;;5.28;;
69998;SDS011;57339;52.156;5.372;2024-02-21T12:26:53;13.07;;;5.75;;
69998;SDS011;57339;52.156;5.372;2024-02-21T12:29:21;14.93;;;6.30;;
69998;SDS011;57339;52.156;5.372;2024-02-21T12:31:49;14.65;;;6.68;;
69998;SDS011;57339;52.156;5.372;2024-02-21T12:34:16;11.85;;;5.22;;
69998;SDS011;57339;52.156;5.372;2024-02-21T12:36:56;16.15;;;6.15;;
69998;SDS011;57339;52.156;5.372;2024-02-21T12:39:25;14.48;;;6.50;;
69998;SDS011;57339;52.156;5.372;2024-02-21T12:41:52;11.90;;;5.30;;
69998;SDS011;57339;52.156;5.372;2024-02-21T12:44:19;14.80;;;6.10;;
69998;SDS011;57339;52.156;5.372;2024-02-21T12:46:46;12.45;;;5.88;;
69998;SDS011;57339;52.156;5.372;2024-02-21T12:49:16;15.57;;;6.40;;
69998;SDS011;57339;52.156;5.372;2024-02-21T12:51:44;14.45;;;6.25;;
69998;SDS011;57339;52.156;5.372;2024-02-21T12:54:11;13.30;;;5.77;;
69998;SDS011;57339;52.156;5.372;2024-02-21T12:56:38;16.13;;;5.93;;
69998;SDS011;57339;52.156;5.372;2024-02-21T12:59:06;10.05;;;4.50;;
69998;SDS011;57339;52.156;5.372;2024-02-21T13:01:33;12.70;;;5.53;;
69998;SDS011;57339;52.156;5.372;2024-02-21T13:04:00;9.75;;;4.13;;
69998;SDS011;57339;52.156;5.372;2024-02-21T13:06:27;15.60;;;5.70;;
69998;SDS011;57339;52.156;5.372;2024-02-21T13:08:55;11.30;;;4.70;;
69998;SDS011;57339;52.156;5.372;2024-02-21T13:11:22;12.55;;;5.85;;
69998;SDS011;57339;52.156;5.372;2024-02-21T13:13:49;14.45;;;5.50;;
69998;SDS011;57339;52.156;5.372;2024-02-21T13:16:16;14.63;;;5.65;;
69998;SDS011;57339;52.156;5.372;2024-02-21T13:18:43;14.73;;;5.57;;
69998;SDS011;57339;52.156;5.372;2024-02-21T13:21:10;10.25;;;3.85;;
69998;SDS011;57339;52.156;5.372;2024-02-21T13:23:39;11.73;;;4.47;;
69998;SDS011;57339;52.156;5.372;2024-02-21T13:26:07;13.43;;;5.47;;
69998;SDS011;57339;52.156;5.372;2024-02-21T13:28:34;13.23;;;5.07;;
69998;SDS011;57339;52.156;5.372;2024-02-21T13:31:02;12.73;;;5.50;;
69998;SDS011;57339;52.156;5.372;2024-02-21T13:33:29;13.77;;;5.03;;
69998;SDS011;57339;52.156;5.372;2024-02-21T13:35:58;17.30;;;4.75;;
69998;SDS011;57339;52.156;5.372;2024-02-21T13:38:25;13.55;;;5.13;;
69998;SDS011;57339;52.156;5.372;2024-02-21T13:40:51;13.82;;;5.20;;
69998;SDS011;57339;52.156;5.372;2024-02-21T13:43:19;12.70;;;5.47;;
69998;SDS011;57339;52.156;5.372;2024-02-21T13:45:55;11.60;;;4.43;;
69998;SDS011;57339;52.156;5.372;2024-02-21T13:48:24;17.02;;;5.78;;
69998;SDS011;57339;52.156;5.372;2024-02-21T13:50:51;14.82;;;5.15;;
69998;SDS011;57339;52.156;5.372;2024-02-21T13:53:18;10.77;;;5.15;;
69998;SDS011;57339;52.156;5.372;2024-02-21T13:55:46;13.03;;;4.97;;
69998;SDS011;57339;52.156;5.372;2024-02-21T13:58:13;14.40;;;4.93;;
69998;SDS011;57339;52.156;5.372;2024-02-21T14:00:42;14.30;;;5.47;;
69998;SDS011;57339;52.156;5.372;2024-02-21T14:03:12;13.65;;;5.15;;
69998;SDS011;57339;52.156;5.372;2024-02-21T14:05:40;9.93;;;4.40;;
69998;SDS011;57339;52.156;5.372;2024-02-21T14:08:08;14.90;;;5.30;;
69998;SDS011;57339;52.156;5.372;2024-02-21T14:10:36;14.48;;;5.40;;
69998;SDS011;57339;52.156;5.372;2024-02-21T14:13:04;14.05;;;4.57;;
69998;SDS011;57339;52.156;5.372;2024-02-21T14:15:31;12.07;;;5.25;;
69998;SDS011;57339;52.156;5.372;2024-02-21T14:17:58;13.52;;;5.18;;
69998;SDS011;57339;52.156;5.372;2024-02-21T14:20:25;13.73;;;6.00;;
69998;SDS011;57339;52.156;5.372;2024-02-21T14:22:52;11.50;;;4.90;;
69998;SDS011;57339;52.156;5.372;2024-02-21T14:25:19;12.95;;;4.50;;
69998;SDS011;57339;52.156;5.372;2024-02-21T14:27:46;14.93;;;5.15;;
69998;SDS011;57339;52.156;5.372;2024-02-21T14:30:13;12.70;;;4.93;;
69998;SDS011;57339;52.156;5.372;2024-02-21T14:32:43;12.17;;;5.00;;
69998;SDS011;57339;52.156;5.372;2024-02-21T14:35:11;13.50;;;5.30;;
69998;SDS011;57339;52.156;5.372;2024-02-21T14:37:38;17.17;;;5.25;;
69998;SDS011;57339;52.156;5.372;2024-02-21T14:40:05;9.15;;;4.15;;
69998;SDS011;57339;52.156;5.372;2024-02-21T14:42:33;11.80;;;4.57;;